LPR4 EPKM-EPKM
Flight info
| Callsign | LPR4 |
|---|---|
| Flight time | 0h 51m |
| Altitude | 2000 |
| Route | 5004N01948E |
| Aircraft | EC35/L-SBDFGRY/SB1 |
Departure
| Time | 2026-05-04 18:35 |
|---|---|
| Airport | Katowice-Muchowiec Airfield (EPKM) |
Arrival
| Time | 2026-05-04 19:26 |
|---|---|
| Airport | Katowice-Muchowiec Airfield (EPKM) |
| Time | Latitude | Longitude | Altitude | Speed | Heading |
|---|---|---|---|---|---|
| 2026-05-04 18:29 | 50.24037 | 19.03051 | 912 ft | 0 kts | 165° |
| 2026-05-04 18:34 | 50.24034 | 19.03052 | 932 ft | 1 kts | 167° |
| 2026-05-04 18:34 | 50.23899 | 19.03397 | 1098 ft | 73 kts | 111° |
| 2026-05-04 18:34 | 50.23725 | 19.04338 | 1177 ft | 108 kts | 108° |
| 2026-05-04 18:35 | 50.23529 | 19.05475 | 1377 ft | 108 kts | 107° |
| 2026-05-04 18:35 | 50.23301 | 19.06596 | 1527 ft | 112 kts | 121° |
| 2026-05-04 18:35 | 50.22957 | 19.07750 | 1613 ft | 122 kts | 117° |
| 2026-05-04 18:35 | 50.22625 | 19.09013 | 1671 ft | 128 kts | 115° |
| 2026-05-04 18:36 | 50.22297 | 19.10340 | 1672 ft | 135 kts | 115° |
| 2026-05-04 18:36 | 50.21955 | 19.11722 | 1686 ft | 138 kts | 115° |
| 2026-05-04 18:36 | 50.21613 | 19.13124 | 1768 ft | 136 kts | 116° |
| 2026-05-04 18:36 | 50.21286 | 19.14476 | 2015 ft | 132 kts | 117° |
| 2026-05-04 18:37 | 50.20936 | 19.15907 | 1982 ft | 148 kts | 116° |
| 2026-05-04 18:37 | 50.20562 | 19.17417 | 2032 ft | 149 kts | 117° |
| 2026-05-04 18:37 | 50.20185 | 19.18928 | 2089 ft | 149 kts | 116° |
| 2026-05-04 18:37 | 50.19752 | 19.20457 | 1952 ft | 154 kts | 121° |
| 2026-05-04 18:38 | 50.19287 | 19.21948 | 1956 ft | 151 kts | 122° |
| 2026-05-04 18:38 | 50.18806 | 19.23370 | 1992 ft | 149 kts | 124° |
| 2026-05-04 18:38 | 50.18283 | 19.24786 | 1924 ft | 151 kts | 126° |
| 2026-05-04 18:38 | 50.17724 | 19.26134 | 1961 ft | 147 kts | 128° |
| 2026-05-04 18:39 | 50.17215 | 19.27555 | 1881 ft | 150 kts | 120° |
| 2026-05-04 18:39 | 50.16820 | 19.29083 | 1796 ft | 154 kts | 114° |
| 2026-05-04 18:39 | 50.16468 | 19.30642 | 1785 ft | 151 kts | 112° |
| 2026-05-04 18:39 | 50.16158 | 19.32198 | 1803 ft | 150 kts | 110° |
| 2026-05-04 18:40 | 50.15873 | 19.33765 | 1823 ft | 151 kts | 110° |
| 2026-05-04 18:40 | 50.15593 | 19.35335 | 1863 ft | 151 kts | 109° |
| 2026-05-04 18:40 | 50.15304 | 19.36918 | 1885 ft | 152 kts | 110° |
| 2026-05-04 18:40 | 50.14996 | 19.38467 | 1890 ft | 152 kts | 112° |
| 2026-05-04 18:41 | 50.14677 | 19.40062 | 1891 ft | 151 kts | 111° |
| 2026-05-04 18:41 | 50.14369 | 19.41583 | 1925 ft | 149 kts | 114° |
| 2026-05-04 18:41 | 50.14040 | 19.43139 | 1937 ft | 149 kts | 112° |
| 2026-05-04 18:41 | 50.13687 | 19.44650 | 1906 ft | 151 kts | 115° |
| 2026-05-04 18:42 | 50.13301 | 19.46158 | 1918 ft | 149 kts | 117° |
| 2026-05-04 18:42 | 50.12889 | 19.47624 | 1954 ft | 147 kts | 118° |
| 2026-05-04 18:42 | 50.12481 | 19.49086 | 1980 ft | 147 kts | 116° |
| 2026-05-04 18:42 | 50.12068 | 19.50558 | 1985 ft | 149 kts | 118° |
| 2026-05-04 18:43 | 50.11783 | 19.51552 | 2000 ft | 150 kts | 118° |
| 2026-05-04 18:43 | 50.11493 | 19.52552 | 2004 ft | 151 kts | 118° |
| 2026-05-04 18:43 | 50.11052 | 19.54058 | 1974 ft | 154 kts | 118° |
| 2026-05-04 18:43 | 50.10637 | 19.55473 | 1915 ft | 155 kts | 118° |
| 2026-05-04 18:44 | 50.10209 | 19.56999 | 1889 ft | 152 kts | 114° |
| 2026-05-04 18:44 | 50.09994 | 19.58049 | 1919 ft | 149 kts | 108° |
| 2026-05-04 18:44 | 50.09684 | 19.60138 | 1903 ft | 149 kts | 105° |
| 2026-05-04 18:44 | 50.09513 | 19.61724 | 1959 ft | 149 kts | 99° |
| 2026-05-04 18:45 | 50.09407 | 19.63329 | 1969 ft | 150 kts | 98° |
| 2026-05-04 18:45 | 50.09288 | 19.64946 | 1937 ft | 153 kts | 98° |
| 2026-05-04 18:45 | 50.09239 | 19.66594 | 1949 ft | 153 kts | 93° |
| 2026-05-04 18:45 | 50.09238 | 19.68241 | 1977 ft | 152 kts | 92° |
| 2026-05-04 18:46 | 50.09229 | 19.69890 | 1988 ft | 152 kts | 92° |
| 2026-05-04 18:46 | 50.09208 | 19.71493 | 1970 ft | 156 kts | 94° |
| 2026-05-04 18:46 | 50.09164 | 19.72953 | 1868 ft | 159 kts | 94° |
| 2026-05-04 18:46 | 50.09127 | 19.74655 | 1865 ft | 156 kts | 92° |
| 2026-05-04 18:47 | 50.09137 | 19.76318 | 1722 ft | 145 kts | 88° |
| 2026-05-04 18:47 | 50.09246 | 19.77737 | 1772 ft | 123 kts | 85° |
| 2026-05-04 18:47 | 50.09277 | 19.78996 | 1717 ft | 106 kts | 91° |
| 2026-05-04 18:47 | 50.09258 | 19.79929 | 1743 ft | 68 kts | 122° |
| 2026-05-04 18:48 | 50.09049 | 19.80505 | 1617 ft | 58 kts | 162° |
| 2026-05-04 18:48 | 50.08673 | 19.80711 | 1435 ft | 55 kts | 171° |
| 2026-05-04 18:48 | 50.08307 | 19.80781 | 1186 ft | 44 kts | 165° |
| 2026-05-04 18:48 | 50.08139 | 19.80801 | 884 ft | 5 kts | 162° |
| 2026-05-04 18:49 | 50.08125 | 19.80802 | 773 ft | 0 kts | 166° |
| 2026-05-04 18:53 | 50.08112 | 19.80802 | 838 ft | 4 kts | 168° |
| 2026-05-04 18:54 | 50.08109 | 19.80809 | 886 ft | 2 kts | 168° |
| 2026-05-04 18:54 | 50.08116 | 19.80819 | 918 ft | 6 kts | 161° |
| 2026-05-04 18:54 | 50.07999 | 19.81101 | 1100 ft | 55 kts | 113° |
| 2026-05-04 18:54 | 50.07800 | 19.81915 | 1244 ft | 102 kts | 111° |
| 2026-05-04 18:55 | 50.07536 | 19.83079 | 1280 ft | 125 kts | 107° |
| 2026-05-04 18:55 | 50.07197 | 19.85757 | 1501 ft | 129 kts | 98° |
| 2026-05-04 18:55 | 50.07105 | 19.87156 | 1505 ft | 128 kts | 97° |
| 2026-05-04 18:56 | 50.07038 | 19.88540 | 1618 ft | 127 kts | 96° |
| 2026-05-04 18:56 | 50.06959 | 19.89943 | 1599 ft | 133 kts | 97° |
| 2026-05-04 18:56 | 50.06844 | 19.91363 | 1574 ft | 134 kts | 99° |
| 2026-05-04 18:56 | 50.06755 | 19.92786 | 1480 ft | 122 kts | 96° |
| 2026-05-04 18:57 | 50.06739 | 19.93798 | 1407 ft | 70 kts | 95° |
| 2026-05-04 18:57 | 50.06619 | 19.94460 | 1351 ft | 57 kts | 98° |
| 2026-05-04 18:57 | 50.06511 | 19.94968 | 1224 ft | 43 kts | 84° |
| 2026-05-04 18:57 | 50.06482 | 19.95324 | 1005 ft | 23 kts | 78° |
| 2026-05-04 18:58 | 50.06486 | 19.95468 | 900 ft | 9 kts | 76° |
| 2026-05-04 18:58 | 50.06492 | 19.95552 | 827 ft | 8 kts | 78° |
| 2026-05-04 18:58 | 50.06499 | 19.95618 | 771 ft | 1 kts | 80° |
| 2026-05-04 18:58 | 50.06499 | 19.95624 | 754 ft | 0 kts | 79° |
| 2026-05-04 19:06 | 50.06496 | 19.95610 | 777 ft | 4 kts | 78° |
| 2026-05-04 19:06 | 50.06493 | 19.95590 | 811 ft | 3 kts | 77° |
| 2026-05-04 19:06 | 50.06492 | 19.95563 | 855 ft | 8 kts | 78° |
| 2026-05-04 19:07 | 50.06479 | 19.95458 | 1038 ft | 15 kts | 64° |
| 2026-05-04 19:07 | 50.06639 | 19.95130 | 1235 ft | 65 kts | 282° |
| 2026-05-04 19:07 | 50.06691 | 19.94203 | 1407 ft | 103 kts | 264° |
| 2026-05-04 19:07 | 50.06594 | 19.92998 | 1512 ft | 119 kts | 258° |
| 2026-05-04 19:08 | 50.06459 | 19.91691 | 1628 ft | 127 kts | 260° |
| 2026-05-04 19:08 | 50.06330 | 19.90308 | 1737 ft | 129 kts | 259° |
| 2026-05-04 19:08 | 50.06192 | 19.88944 | 1836 ft | 127 kts | 261° |
| 2026-05-04 19:08 | 50.06086 | 19.87624 | 1941 ft | 121 kts | 260° |
| 2026-05-04 19:09 | 50.05980 | 19.86352 | 2008 ft | 118 kts | 260° |
| 2026-05-04 19:09 | 50.05903 | 19.85095 | 2033 ft | 121 kts | 262° |
| 2026-05-04 19:09 | 50.05808 | 19.83749 | 1973 ft | 128 kts | 261° |
| 2026-05-04 19:09 | 50.05612 | 19.82394 | 1964 ft | 130 kts | 254° |
| 2026-05-04 19:10 | 50.05387 | 19.81023 | 2012 ft | 131 kts | 254° |
| 2026-05-04 19:10 | 50.05194 | 19.79611 | 2008 ft | 134 kts | 257° |
| 2026-05-04 19:10 | 50.05041 | 19.78175 | 2018 ft | 135 kts | 259° |
| 2026-05-04 19:10 | 50.04913 | 19.76725 | 2003 ft | 136 kts | 261° |
| 2026-05-04 19:11 | 50.04803 | 19.75265 | 2000 ft | 136 kts | 261° |
| 2026-05-04 19:11 | 50.04712 | 19.74301 | 1986 ft | 136 kts | 259° |
| 2026-05-04 19:11 | 50.04536 | 19.72850 | 1956 ft | 137 kts | 257° |
| 2026-05-04 19:11 | 50.04380 | 19.71409 | 2014 ft | 134 kts | 261° |
| 2026-05-04 19:12 | 50.04249 | 19.69952 | 2004 ft | 137 kts | 259° |
| 2026-05-04 19:12 | 50.03857 | 19.66524 | 1960 ft | 138 kts | 255° |
| 2026-05-04 19:12 | 50.03677 | 19.65564 | 1986 ft | 136 kts | 250° |
| 2026-05-04 19:13 | 50.03394 | 19.64155 | 1971 ft | 137 kts | 251° |
| 2026-05-04 19:13 | 50.03107 | 19.62730 | 1956 ft | 138 kts | 251° |
| 2026-05-04 19:13 | 50.02807 | 19.61309 | 1948 ft | 138 kts | 250° |
| 2026-05-04 19:13 | 50.02491 | 19.59901 | 1936 ft | 138 kts | 249° |
| 2026-05-04 19:14 | 50.02161 | 19.58510 | 1946 ft | 136 kts | 248° |
| 2026-05-04 19:14 | 50.01823 | 19.57154 | 2023 ft | 132 kts | 247° |
| 2026-05-04 19:14 | 50.01480 | 19.55841 | 2074 ft | 130 kts | 245° |
| 2026-05-04 19:14 | 50.01128 | 19.54546 | 2120 ft | 131 kts | 245° |
| 2026-05-04 19:15 | 50.00757 | 19.53242 | 2091 ft | 133 kts | 244° |
| 2026-05-04 19:15 | 50.00365 | 19.51931 | 2058 ft | 134 kts | 242° |
| 2026-05-04 19:15 | 50.00286 | 19.50000 | 1889 ft | 147 kts | 281° |
| 2026-05-04 19:15 | 50.00523 | 19.49024 | 1973 ft | 139 kts | 292° |
| 2026-05-04 19:16 | 50.00937 | 19.47694 | 1991 ft | 133 kts | 295° |
| 2026-05-04 19:16 | 50.01366 | 19.46458 | 2061 ft | 129 kts | 294° |
| 2026-05-04 19:16 | 50.01912 | 19.45329 | 2086 ft | 135 kts | 308° |
| 2026-05-04 19:16 | 50.02577 | 19.44248 | 2024 ft | 140 kts | 307° |
| 2026-05-04 19:17 | 50.03253 | 19.43137 | 1975 ft | 142 kts | 308° |
| 2026-05-04 19:17 | 50.03927 | 19.42015 | 1919 ft | 142 kts | 308° |
| 2026-05-04 19:17 | 50.04595 | 19.40888 | 1859 ft | 142 kts | 308° |
| 2026-05-04 19:17 | 50.05257 | 19.39753 | 1830 ft | 141 kts | 308° |
| 2026-05-04 19:18 | 50.05907 | 19.38631 | 1830 ft | 139 kts | 308° |
| 2026-05-04 19:18 | 50.06540 | 19.37530 | 1863 ft | 137 kts | 307° |
| 2026-05-04 19:18 | 50.07174 | 19.36424 | 1902 ft | 136 kts | 307° |
| 2026-05-04 19:18 | 50.07815 | 19.35307 | 1934 ft | 137 kts | 306° |
| 2026-05-04 19:19 | 50.08448 | 19.34204 | 1916 ft | 140 kts | 306° |
| 2026-05-04 19:19 | 50.09101 | 19.33076 | 1908 ft | 140 kts | 309° |
| 2026-05-04 19:19 | 50.09780 | 19.32002 | 1934 ft | 138 kts | 310° |
| 2026-05-04 19:19 | 50.10457 | 19.30959 | 1979 ft | 136 kts | 309° |
| 2026-05-04 19:20 | 50.11128 | 19.29904 | 1983 ft | 138 kts | 308° |
| 2026-05-04 19:20 | 50.11741 | 19.28827 | 2148 ft | 128 kts | 304° |
| 2026-05-04 19:20 | 50.12301 | 19.27773 | 2156 ft | 134 kts | 303° |
| 2026-05-04 19:20 | 50.12900 | 19.26587 | 2039 ft | 140 kts | 301° |
| 2026-05-04 19:21 | 50.13476 | 19.25376 | 2000 ft | 139 kts | 300° |
| 2026-05-04 19:21 | 50.14030 | 19.24152 | 1993 ft | 137 kts | 298° |
| 2026-05-04 19:21 | 50.14552 | 19.22923 | 1992 ft | 135 kts | 297° |
| 2026-05-04 19:21 | 50.15078 | 19.21717 | 2009 ft | 134 kts | 301° |
| 2026-05-04 19:22 | 50.15621 | 19.20542 | 1993 ft | 136 kts | 297° |
| 2026-05-04 19:22 | 50.16147 | 19.19332 | 2006 ft | 134 kts | 297° |
| 2026-05-04 19:22 | 50.16645 | 19.18116 | 2034 ft | 132 kts | 295° |
| 2026-05-04 19:22 | 50.17113 | 19.16884 | 2059 ft | 131 kts | 293° |
| 2026-05-04 19:23 | 50.17596 | 19.15669 | 2058 ft | 134 kts | 300° |
| 2026-05-04 19:23 | 50.18241 | 19.14599 | 2056 ft | 136 kts | 309° |
| 2026-05-04 19:23 | 50.18932 | 19.13580 | 2029 ft | 138 kts | 309° |
| 2026-05-04 19:23 | 50.19618 | 19.12509 | 1984 ft | 137 kts | 308° |
| 2026-05-04 19:24 | 50.20277 | 19.11452 | 2046 ft | 133 kts | 307° |
| 2026-05-04 19:24 | 50.20863 | 19.10348 | 2086 ft | 133 kts | 299° |
| 2026-05-04 19:24 | 50.21412 | 19.09152 | 2032 ft | 138 kts | 300° |
| 2026-05-04 19:24 | 50.21975 | 19.07920 | 1944 ft | 140 kts | 299° |
| 2026-05-04 19:25 | 50.22507 | 19.06695 | 1797 ft | 121 kts | 295° |
| 2026-05-04 19:25 | 50.22832 | 19.05794 | 1790 ft | 76 kts | 290° |
| 2026-05-04 19:25 | 50.23024 | 19.05122 | 1616 ft | 64 kts | 293° |
| 2026-05-04 19:25 | 50.23241 | 19.04453 | 1463 ft | 74 kts | 299° |
| 2026-05-04 19:26 | 50.23459 | 19.03760 | 1324 ft | 66 kts | 309° |
| 2026-05-04 19:26 | 50.23667 | 19.03220 | 1202 ft | 45 kts | 339° |
| 2026-05-04 19:26 | 50.23842 | 19.03087 | 1083 ft | 16 kts | 342° |
| 2026-05-04 19:26 | 50.23929 | 19.03083 | 970 ft | 10 kts | 342° |
| 2026-05-04 19:27 | 50.23987 | 19.03068 | 942 ft | 6 kts | 343° |
| 2026-05-04 19:27 | 50.24018 | 19.03057 | 930 ft | 4 kts | 347° |
| 2026-05-04 19:27 | 50.24033 | 19.03051 | 917 ft | 1 kts | 347° |